Bridgman, MI

6:16 PM EDT on September 04, 2015 (GMT -0400)
IMICHIGA3 | | Change Station
CLOSE
Current Station
Personal Weather Station
Location: Bridgman, MI
Elevation: 640 ft
Nearby Weather Stations

Elev 640 ft 41.93 °N, 86.56 °W | Updated 47 seconds ago

Partly Cloudy
Partly Cloudy
73.3 °F
Feels Like 75 °F
N
0.0
Wind Variable Wind from ENE
Gusts 1.1 mph

Today
High -- | Low -- °F
--% Chance of Precip.
Yesterday
High -- | Low -- °F
Precip. -- in
7:14 AM 8:15 PM
Waning Gibbous, 55% visible
Pressure 30.04 in
Visibility 10.0 miles
Clouds Mostly Cloudy 6000 ft
Heat Index 75 °F
Dew Point 64 °F
Humidity 71%
Rainfall 0.00 in
Snow Depth Not available.
UV 1 out of 12
Pollen 9.10 out of 12
Air Quality Not available.
Flu Activity Not available.
METAR KBEH 042153Z AUTO VRB03KT 10SM BKN060 23/19 A3004 RMK AO2 SLP170 T02330189
Pressure 30.04 in
Visibility 10.0 miles
Clouds Mostly Cloudy 6000 ft
Heat Index 75 °F
Dew Point 64 °F
Humidity 71%
Rainfall 0.00 in
Snow Depth Not available.
UV 1 out of 12
Pollen 9.10 out of 12
Air Quality Not available.
Flu Activity Not available.
METAR KBEH 042153Z AUTO VRB03KT 10SM BKN060 23/19 A3004 RMK AO2 SLP170 T02330189

10-Day Weather Forecast

×

Almanac

Astronomy

Sep. 04, 2015 Rise Set
Actual Time
Civil Twilight
Nautical Twilight
Astronomical Twilight
Moon
Length of Visible Light
Length of Day
Tomorrow will be .
, % of the Moon is Illuminated

Today's Extremes

State Highs State Lows

Community

WunderPhotos

Upload Photos

1,852,307 photos uploaded!

WunderBlogs® & News

Nearby

Air Quality

  Air Quality AQ Index Pollutant
Not available.

Snow Depth

Station Depth Elevation

Earthquake Activity

City Distance Mag. Time & Date
Minimum magnitude displayed is 2.5.

Coastal Water Temperatures

Place Temperature

Stations

Nearby Weather Stations

Station Location Temp. Windchill Dew Point Humidity Wind Precip. Elev Updated Type